Rockwell, NC (28138)

11:27 PM EDT on August 21, 2014 (GMT -0400)
Granite Quarry | Change Station
CLOSE
Current Station
Personal Weather Station
Location: Salisbury, NC
Elevation: 771 ft
Nearby Weather Stations

Elev 771 ft 35.61 °N, 80.46 °W | Updated 4 seconds ago

Clear
Clear
77.9 °F
Feels Like 80 °F
N
0.0
Wind Variable Wind from NNE
Gusts 0.0 mph

Today
High -- | Low -- °F
--% Chance of Precip.
Yesterday
High -- | Low -- °F
Precip. -- in
6:45 AM 8:03 PM
Waning Crescent, 10% visible
Pressure 30.08 in
Visibility 10.0 miles
Clouds Clear
Heat Index 80 °F
Dew Point 71 °F
Humidity 79%
Rainfall 0.00 in
Snow Depth Not available.
UV 0 out of 12
Pollen 9.00 out of 12
Ozone Good
PM2.5 Moderate
Flu Activity Not available.
METAR KRUQ 220315Z AUTO 00000KT 10SM CLR 23/22 A3008 RMK AO2 T02280223

More Conditions Fewer Conditions

Pressure 30.08 in
Visibility 10.0 miles
Clouds Clear
Heat Index 80 °F
Dew Point 71 °F
Humidity 79%
Rainfall 0.00 in
Snow Depth Not available.
UV 0 out of 12
Pollen 9.00 out of 12
Ozone Good
PM2.5 Moderate
Flu Activity Not available.
METAR KRUQ 220315Z AUTO 00000KT 10SM CLR 23/22 A3008 RMK AO2 T02280223

More Conditions Fewer Conditions

10-Day Weather Forecast

Almanac

Astronomy

Aug. 21, 2014 Rise Set
Actual Time 6:45 AM EDT 8:03 PM EDT
Civil Twilight 6:18 AM EDT 8:30 PM EDT
Nautical Twilight 5:47 AM EDT 9:01 PM EDT
Astronomical Twilight 5:13 AM EDT 9:34 PM EDT
Moon 3:17 AM EDT (8/21) 5:28 PM EDT (8/21)
Length of Visible Light 14h 11m
Length of Day
13h 18m
Tomorrow will be 2m 2s shorter.
Waning Crescent, 10% of the Moon is Illuminated
Today
Waning Crescent
Aug 25
New
Sep 2
First Quarter
Sep 8
Full
Sep 15
Last Quarter

Today's Extremes

State Highs State Lows

Community

WunderPhotos

Upload Photos

1,746,122 photos uploaded!

Nearby

Air Quality

  Air Quality AQ Index Pollutant
Yesterday Moderate
OZONE
Yesterday Good
PM2.5
Current Moderate
PM2.5
Current Good
OZONE
Thursday Moderate
OZONE
Thursday Moderate
PM2.5
Friday Moderate
OZONE
Friday Good
PM2.5
Saturday Good
OZONE
Saturday Good
PM2.5
Sunday Good
OZONE
Sunday Good
PM2.5

Snow Depth

Station Depth Elevation
No new snow has been reported.

Earthquake Activity

City Distance Mag. Time & Date
No recent earthquake activity has been reported nearby.
Minimum magnitude displayed is 2.5.

Coastal Water Temperatures

Place Temperature
No Stations Reporting

Nearby Weather Stations